sensor_id;sensor_type;location;lat;lon;timestamp;pressure;altitude;pressure_sealevel;temperature;humidity
61676;BME280;47574;52.090;5.244;2023-03-01T00:01:10;103195.0;;;6.78;47.21
61676;BME280;47574;52.090;5.244;2023-03-01T00:02:49;103193.0;;;6.81;47.17
61676;BME280;47574;52.090;5.244;2023-03-01T00:06:04;103195.0;;;6.86;46.99
61676;BME280;47574;52.090;5.244;2023-03-01T00:07:40;103201.0;;;7.19;46.51
61676;BME280;47574;52.090;5.244;2023-03-01T00:09:16;103199.0;;;6.81;47.2
61676;BME280;47574;52.090;5.244;2023-03-01T00:11:03;103197.0;;;7.02;46.95
61676;BME280;47574;52.090;5.244;2023-03-01T00:14:16;103197.0;;;7.24;46.35
61676;BME280;47574;52.090;5.244;2023-03-01T00:15:52;103197.0;;;7.26;46.36
61676;BME280;47574;52.090;5.244;2023-03-01T00:17:28;103199.0;;;6.9;47.07
61676;BME280;47574;52.090;5.244;2023-03-01T00:20:41;103202.0;;;7.28;46.36
61676;BME280;47574;52.090;5.244;2023-03-01T00:22:17;103197.0;;;7.11;46.55
61676;BME280;47574;52.090;5.244;2023-03-01T00:23:54;103196.0;;;6.72;47.57
61676;BME280;47574;52.090;5.244;2023-03-01T00:27:07;103198.0;;;6.5;48.25
61676;BME280;47574;52.090;5.244;2023-03-01T00:28:43;103191.00000000001;;;6.9;47.2
61676;BME280;47574;52.090;5.244;2023-03-01T00:30:20;103189.00000000001;;;6.89;47.12
61676;BME280;47574;52.090;5.244;2023-03-01T00:31:56;103189.00000000001;;;6.56;47.89
61676;BME280;47574;52.090;5.244;2023-03-01T00:35:09;103193.0;;;6.38;48.47
61676;BME280;47574;52.090;5.244;2023-03-01T00:36:46;103188.00000000001;;;6.7;47.87
61676;BME280;47574;52.090;5.244;2023-03-01T00:38:22;103181.0;;;6.83;47.42
61676;BME280;47574;52.090;5.244;2023-03-01T00:41:34;103181.0;;;6.59;47.87
61676;BME280;47574;52.090;5.244;2023-03-01T00:43:10;103176.0;;;6.87;47.16
61676;BME280;47574;52.090;5.244;2023-03-01T00:44:46;103177.0;;;6.88;47.1
61676;BME280;47574;52.090;5.244;2023-03-01T00:48:02;103180.0;;;6.89;47.06
61676;BME280;47574;52.090;5.244;2023-03-01T00:49:38;103180.0;;;7.02;46.67
61676;BME280;47574;52.090;5.244;2023-03-01T00:51:16;103182.0;;;6.8;47.13
61676;BME280;47574;52.090;5.244;2023-03-01T00:52:53;103181.0;;;6.78;47.36
61676;BME280;47574;52.090;5.244;2023-03-01T00:56:09;103182.0;;;6.77;47.3
61676;BME280;47574;52.090;5.244;2023-03-01T00:57:45;103182.0;;;6.74;47.34
61676;BME280;47574;52.090;5.244;2023-03-01T00:59:22;103182.0;;;6.51;47.95
61676;BME280;47574;52.090;5.244;2023-03-01T01:02:34;103177.0;;;6.97;47.13
61676;BME280;47574;52.090;5.244;2023-03-01T01:04:12;103178.0;;;7.1;46.74
61676;BME280;47574;52.090;5.244;2023-03-01T01:05:49;103173.0;;;6.93;47.09
61676;BME280;47574;52.090;5.244;2023-03-01T01:07:25;103171.0;;;7.05;47.01
61676;BME280;47574;52.090;5.244;2023-03-01T01:10:43;103170.0;;;6.86;47.39
61676;BME280;47574;52.090;5.244;2023-03-01T01:12:20;103174.0;;;6.87;47.72
61676;BME280;47574;52.090;5.244;2023-03-01T01:13:57;103172.0;;;6.89;47.4
61676;BME280;47574;52.090;5.244;2023-03-01T01:17:10;103168.0;;;6.94;47.71
61676;BME280;47574;52.090;5.244;2023-03-01T01:18:46;103161.99999999999;;;6.99;47.51
61676;BME280;47574;52.090;5.244;2023-03-01T01:20:22;103158.99999999999;;;6.69;48.2
61676;BME280;47574;52.090;5.244;2023-03-01T01:23:36;103157.0;;;7.21;47.31
61676;BME280;47574;52.090;5.244;2023-03-01T01:25:12;103153.0;;;6.71;48.18
61676;BME280;47574;52.090;5.244;2023-03-01T01:26:48;103149.0;;;6.92;48.01
61676;BME280;47574;52.090;5.244;2023-03-01T01:28:25;103144.0;;;7.02;47.67
61676;BME280;47574;52.090;5.244;2023-03-01T01:31:41;103146.0;;;6.88;47.91
61676;BME280;47574;52.090;5.244;2023-03-01T01:33:17;103144.0;;;6.81;48.0
61676;BME280;47574;52.090;5.244;2023-03-01T01:34:54;103136.99999999999;;;7.02;47.53
61676;BME280;47574;52.090;5.244;2023-03-01T01:38:09;103136.99999999999;;;6.83;47.85
61676;BME280;47574;52.090;5.244;2023-03-01T01:39:45;103133.99999999999;;;7.05;47.31
61676;BME280;47574;52.090;5.244;2023-03-01T01:41:22;103133.0;;;6.96;47.52
61676;BME280;47574;52.090;5.244;2023-03-01T01:42:59;103133.0;;;6.79;47.7
61676;BME280;47574;52.090;5.244;2023-03-01T01:46:17;103136.99999999999;;;6.61;48.09
61676;BME280;47574;52.090;5.244;2023-03-01T01:48:00;103133.99999999999;;;6.6;48.04
61676;BME280;47574;52.090;5.244;2023-03-01T01:49:42;103132.0;;;6.6;48.04
61676;BME280;47574;52.090;5.244;2023-03-01T01:51:23;103133.99999999999;;;6.76;47.72
61676;BME280;47574;52.090;5.244;2023-03-01T01:54:42;103133.99999999999;;;6.77;47.54
61676;BME280;47574;52.090;5.244;2023-03-01T01:56:23;103131.0;;;6.71;47.57
61676;BME280;47574;52.090;5.244;2023-03-01T01:58:03;103125.0;;;6.63;47.92
61676;BME280;47574;52.090;5.244;2023-03-01T01:59:45;103123.0;;;6.52;48.02
61676;BME280;47574;52.090;5.244;2023-03-01T02:03:04;103124.0;;;6.59;47.77
61676;BME280;47574;52.090;5.244;2023-03-01T02:04:44;103123.0;;;6.47;48.14
61676;BME280;47574;52.090;5.244;2023-03-01T02:06:27;103124.0;;;6.6;48.09
61676;BME280;47574;52.090;5.244;2023-03-01T02:08:06;103118.0;;;6.49;48.31
61676;BME280;47574;52.090;5.244;2023-03-01T02:11:25;103111.99999999999;;;6.38;48.32
61676;BME280;47574;52.090;5.244;2023-03-01T02:13:03;103115.00000000001;;;6.52;47.81
61676;BME280;47574;52.090;5.244;2023-03-01T02:14:40;103116.00000000001;;;6.58;47.93
61676;BME280;47574;52.090;5.244;2023-03-01T02:17:54;103117.0;;;6.41;48.36
61676;BME280;47574;52.090;5.244;2023-03-01T02:19:41;103122.0;;;6.57;47.99
61676;BME280;47574;52.090;5.244;2023-03-01T02:21:41;103125.0;;;6.6;47.88
61676;BME280;47574;52.090;5.244;2023-03-01T02:23:25;103118.0;;;6.45;48.2
61676;BME280;47574;52.090;5.244;2023-03-01T02:25:09;103117.0;;;6.51;48.12
61676;BME280;47574;52.090;5.244;2023-03-01T02:28:32;103117.0;;;6.57;47.92
61676;BME280;47574;52.090;5.244;2023-03-01T02:30:10;103117.0;;;6.53;48.07
61676;BME280;47574;52.090;5.244;2023-03-01T02:31:47;103117.0;;;6.59;48.08
61676;BME280;47574;52.090;5.244;2023-03-01T02:33:24;103115.00000000001;;;6.51;48.22
61676;BME280;47574;52.090;5.244;2023-03-01T02:36:40;103115.00000000001;;;6.51;48.12
61676;BME280;47574;52.090;5.244;2023-03-01T02:38:18;103111.99999999999;;;6.59;47.95
61676;BME280;47574;52.090;5.244;2023-03-01T02:39:59;103109.99999999999;;;6.52;47.91
61676;BME280;47574;52.090;5.244;2023-03-01T02:41:38;103103.0;;;6.37;48.15
61676;BME280;47574;52.090;5.244;2023-03-01T02:44:58;103106.0;;;6.58;47.95
61676;BME280;47574;52.090;5.244;2023-03-01T02:46:41;103104.0;;;6.36;48.27
61676;BME280;47574;52.090;5.244;2023-03-01T02:48:18;103100.0;;;6.42;48.12
61676;BME280;47574;52.090;5.244;2023-03-01T02:49:55;103096.0;;;6.4;48.45
61676;BME280;47574;52.090;5.244;2023-03-01T02:55:12;103092.0;;;6.42;48.58
61676;BME280;47574;52.090;5.244;2023-03-01T02:56:50;103090.00000000001;;;6.23;49.23
61676;BME280;47574;52.090;5.244;2023-03-01T02:58:27;103088.00000000001;;;6.28;48.83
61676;BME280;47574;52.090;5.244;2023-03-01T03:01:44;103083.0;;;6.29;48.59
61676;BME280;47574;52.090;5.244;2023-03-01T03:03:21;103083.0;;;6.2;48.5
61676;BME280;47574;52.090;5.244;2023-03-01T03:04:57;103081.0;;;6.19;48.41
61676;BME280;47574;52.090;5.244;2023-03-01T03:08:10;103078.0;;;6.17;48.45
61676;BME280;47574;52.090;5.244;2023-03-01T03:09:46;103076.0;;;6.24;48.57
61676;BME280;47574;52.090;5.244;2023-03-01T03:11:22;103079.0;;;6.46;48.05
61676;BME280;47574;52.090;5.244;2023-03-01T03:13:00;103082.0;;;6.38;47.89
61676;BME280;47574;52.090;5.244;2023-03-01T03:16:13;103080.0;;;6.43;47.84
61676;BME280;47574;52.090;5.244;2023-03-01T03:17:50;103083.0;;;6.4;48.01
61676;BME280;47574;52.090;5.244;2023-03-01T03:19:28;103086.99999999999;;;5.97;49.01
61676;BME280;47574;52.090;5.244;2023-03-01T03:22:43;103079.0;;;6.13;48.56
61676;BME280;47574;52.090;5.244;2023-03-01T03:24:19;103080.0;;;6.22;48.43
61676;BME280;47574;52.090;5.244;2023-03-01T03:25:55;103075.0;;;6.27;48.44
61676;BME280;47574;52.090;5.244;2023-03-01T03:29:08;103067.0;;;6.26;48.19
61676;BME280;47574;52.090;5.244;2023-03-01T03:30:44;103068.0;;;6.33;48.2
61676;BME280;47574;52.090;5.244;2023-03-01T03:32:20;103059.99999999999;;;6.16;48.37
61676;BME280;47574;52.090;5.244;2023-03-01T03:33:56;103059.99999999999;;;6.2;48.61
61676;BME280;47574;52.090;5.244;2023-03-01T03:37:15;103057.0;;;6.25;48.16
61676;BME280;47574;52.090;5.244;2023-03-01T03:38:52;103065.00000000001;;;6.14;48.22
61676;BME280;47574;52.090;5.244;2023-03-01T03:40:29;103066.00000000001;;;6.09;48.54
61676;BME280;47574;52.090;5.244;2023-03-01T03:43:44;103065.00000000001;;;6.22;48.23
61676;BME280;47574;52.090;5.244;2023-03-01T03:45:20;103064.00000000001;;;6.22;47.95
61676;BME280;47574;52.090;5.244;2023-03-01T03:46:56;103063.00000000001;;;6.12;48.1
61676;BME280;47574;52.090;5.244;2023-03-01T03:48:33;103067.0;;;5.9;48.6
61676;BME280;47574;52.090;5.244;2023-03-01T03:51:48;103065.00000000001;;;5.9;48.26
61676;BME280;47574;52.090;5.244;2023-03-01T03:53:25;103061.99999999999;;;5.91;48.21
61676;BME280;47574;52.090;5.244;2023-03-01T03:55:04;103058.99999999999;;;5.79;48.32
61676;BME280;47574;52.090;5.244;2023-03-01T03:58:17;103058.99999999999;;;5.64;48.71
61676;BME280;47574;52.090;5.244;2023-03-01T03:59:54;103058.0;;;5.55;48.72
61676;BME280;47574;52.090;5.244;2023-03-01T04:01:31;103054.0;;;5.45;48.93
61676;BME280;47574;52.090;5.244;2023-03-01T04:03:07;103052.0;;;5.67;48.61
61676;BME280;47574;52.090;5.244;2023-03-01T04:06:21;103056.0;;;5.72;48.22
61676;BME280;47574;52.090;5.244;2023-03-01T04:07:58;103056.0;;;5.57;48.62
61676;BME280;47574;52.090;5.244;2023-03-01T04:09:35;103065.00000000001;;;5.58;48.74
61676;BME280;47574;52.090;5.244;2023-03-01T04:12:48;103067.0;;;5.8;48.3
61676;BME280;47574;52.090;5.244;2023-03-01T04:14:24;103066.00000000001;;;5.61;48.57
61676;BME280;47574;52.090;5.244;2023-03-01T04:16:01;103066.00000000001;;;5.57;48.59
61676;BME280;47574;52.090;5.244;2023-03-01T04:19:13;103064.00000000001;;;5.91;47.87
61676;BME280;47574;52.090;5.244;2023-03-01T04:20:49;103065.00000000001;;;5.79;47.9
61676;BME280;47574;52.090;5.244;2023-03-01T04:22:26;103065.00000000001;;;5.6;48.21
61676;BME280;47574;52.090;5.244;2023-03-01T04:24:03;103065.00000000001;;;5.56;48.44
61676;BME280;47574;52.090;5.244;2023-03-01T04:27:17;103063.00000000001;;;5.9;47.99
61676;BME280;47574;52.090;5.244;2023-03-01T04:28:54;103065.00000000001;;;5.84;47.81
61676;BME280;47574;52.090;5.244;2023-03-01T04:30:30;103066.00000000001;;;5.72;48.11
61676;BME280;47574;52.090;5.244;2023-03-01T04:33:44;103066.00000000001;;;5.62;48.3
61676;BME280;47574;52.090;5.244;2023-03-01T04:35:20;103065.00000000001;;;5.69;48.01
61676;BME280;47574;52.090;5.244;2023-03-01T04:36:56;103068.0;;;5.77;47.67
61676;BME280;47574;52.090;5.244;2023-03-01T04:40:10;103068.0;;;5.63;47.88
61676;BME280;47574;52.090;5.244;2023-03-01T04:41:46;103067.0;;;5.73;47.65
61676;BME280;47574;52.090;5.244;2023-03-01T04:43:23;103070.0;;;5.61;47.86
61676;BME280;47574;52.090;5.244;2023-03-01T04:44:59;103064.00000000001;;;5.57;47.89
61676;BME280;47574;52.090;5.244;2023-03-01T04:48:12;103065.00000000001;;;5.33;48.32
61676;BME280;47574;52.090;5.244;2023-03-01T04:49:49;103063.00000000001;;;5.15;48.91
61676;BME280;47574;52.090;5.244;2023-03-01T04:51:25;103061.99999999999;;;5.33;48.57
61676;BME280;47574;52.090;5.244;2023-03-01T04:54:38;103055.0;;;5.38;48.53
61676;BME280;47574;52.090;5.244;2023-03-01T04:56:15;103053.0;;;5.51;48.15
61676;BME280;47574;52.090;5.244;2023-03-01T04:57:52;103046.0;;;5.48;48.08
61676;BME280;47574;52.090;5.244;2023-03-01T05:01:09;103039.00000000001;;;5.43;48.19
61676;BME280;47574;52.090;5.244;2023-03-01T05:02:48;103040.00000000001;;;5.23;48.53
61676;BME280;47574;52.090;5.244;2023-03-01T05:04:24;103042.0;;;4.93;49.16
61676;BME280;47574;52.090;5.244;2023-03-01T05:06:00;103036.99999999999;;;5.41;48.26
61676;BME280;47574;52.090;5.244;2023-03-01T05:09:13;103033.0;;;5.36;48.12
61676;BME280;47574;52.090;5.244;2023-03-01T05:10:51;103031.0;;;5.62;47.8
61676;BME280;47574;52.090;5.244;2023-03-01T05:12:28;103028.0;;;5.58;47.8
61676;BME280;47574;52.090;5.244;2023-03-01T05:15:42;103025.0;;;5.55;47.91
61676;BME280;47574;52.090;5.244;2023-03-01T05:17:18;103018.0;;;5.69;47.6
61676;BME280;47574;52.090;5.244;2023-03-01T05:18:54;103021.0;;;5.53;48.17
61676;BME280;47574;52.090;5.244;2023-03-01T05:22:07;103026.0;;;5.56;48.02
61676;BME280;47574;52.090;5.244;2023-03-01T05:23:43;103020.0;;;5.43;48.23
61676;BME280;47574;52.090;5.244;2023-03-01T05:25:20;103016.00000000001;;;5.45;48.28
61676;BME280;47574;52.090;5.244;2023-03-01T05:26:58;103009.99999999999;;;5.19;48.63
61676;BME280;47574;52.090;5.244;2023-03-01T05:30:12;103005.0;;;5.24;48.63
61676;BME280;47574;52.090;5.244;2023-03-01T05:31:48;103005.0;;;5.12;48.72
61676;BME280;47574;52.090;5.244;2023-03-01T05:33:25;102998.0;;;5.14;48.7
61676;BME280;47574;52.090;5.244;2023-03-01T05:36:40;102995.0;;;5.28;48.55
61676;BME280;47574;52.090;5.244;2023-03-01T05:38:16;102992.0;;;5.09;48.95
61676;BME280;47574;52.090;5.244;2023-03-01T05:39:52;102995.0;;;5.14;48.76
61676;BME280;47574;52.090;5.244;2023-03-01T05:41:28;102993.0;;;5.43;48.36
61676;BME280;47574;52.090;5.244;2023-03-01T05:44:41;102988.00000000001;;;5.33;48.46
61676;BME280;47574;52.090;5.244;2023-03-01T05:46:18;102983.0;;;5.37;48.1
61676;BME280;47574;52.090;5.244;2023-03-01T05:47:54;102980.0;;;5.2;48.49
61676;BME280;47574;52.090;5.244;2023-03-01T05:51:07;102978.0;;;5.07;48.8
61676;BME280;47574;52.090;5.244;2023-03-01T05:52:44;102980.0;;;5.22;48.28
61676;BME280;47574;52.090;5.244;2023-03-01T05:54:21;102982.0;;;4.95;48.66
61676;BME280;47574;52.090;5.244;2023-03-01T05:57:35;102978.0;;;4.63;49.36
61676;BME280;47574;52.090;5.244;2023-03-01T05:59:11;102979.0;;;4.84;48.8
61676;BME280;47574;52.090;5.244;2023-03-01T06:00:48;102979.0;;;4.95;48.51
61676;BME280;47574;52.090;5.244;2023-03-01T06:02:24;102975.0;;;4.84;48.82
61676;BME280;47574;52.090;5.244;2023-03-01T06:05:38;102973.0;;;4.74;48.98
61676;BME280;47574;52.090;5.244;2023-03-01T06:07:15;102978.0;;;4.71;49.07
61676;BME280;47574;52.090;5.244;2023-03-01T06:08:51;102978.0;;;4.7;49.12
61676;BME280;47574;52.090;5.244;2023-03-01T06:12:05;102979.0;;;4.63;49.47
61676;BME280;47574;52.090;5.244;2023-03-01T06:13:42;102983.99999999999;;;4.84;48.81
61676;BME280;47574;52.090;5.244;2023-03-01T06:15:20;102978.0;;;4.84;49.12
61676;BME280;47574;52.090;5.244;2023-03-01T06:18:34;102980.0;;;5.08;48.56
61676;BME280;47574;52.090;5.244;2023-03-01T06:20:13;102978.0;;;5.01;48.49
61676;BME280;47574;52.090;5.244;2023-03-01T06:21:50;102982.0;;;4.67;49.35
61676;BME280;47574;52.090;5.244;2023-03-01T06:23:26;102979.0;;;4.75;49.09
61676;BME280;47574;52.090;5.244;2023-03-01T06:26:40;102983.99999999999;;;4.86;48.97
61676;BME280;47574;52.090;5.244;2023-03-01T06:28:16;102991.00000000001;;;4.82;48.95
61676;BME280;47574;52.090;5.244;2023-03-01T06:29:53;102991.00000000001;;;4.87;48.82
61676;BME280;47574;52.090;5.244;2023-03-01T06:33:05;102984.99999999999;;;4.88;48.66
61676;BME280;47574;52.090;5.244;2023-03-01T06:34:41;102989.00000000001;;;4.88;48.67
61676;BME280;47574;52.090;5.244;2023-03-01T06:36:17;102989.00000000001;;;4.82;48.85
61676;BME280;47574;52.090;5.244;2023-03-01T06:39:29;102984.99999999999;;;5.04;48.51
61676;BME280;47574;52.090;5.244;2023-03-01T06:41:07;102986.99999999999;;;5.14;48.4
61676;BME280;47574;52.090;5.244;2023-03-01T06:42:47;102984.99999999999;;;4.82;48.89
61676;BME280;47574;52.090;5.244;2023-03-01T06:44:25;102984.99999999999;;;4.63;49.25
61676;BME280;47574;52.090;5.244;2023-03-01T06:47:40;102990.00000000001;;;4.78;48.87
61676;BME280;47574;52.090;5.244;2023-03-01T06:49:17;102984.99999999999;;;4.53;49.66
61676;BME280;47574;52.090;5.244;2023-03-01T06:50:52;102988.00000000001;;;4.78;48.99
61676;BME280;47574;52.090;5.244;2023-03-01T06:54:07;102991.00000000001;;;4.97;48.73
61676;BME280;47574;52.090;5.244;2023-03-01T06:55:43;102988.00000000001;;;5.17;48.23
61676;BME280;47574;52.090;5.244;2023-03-01T06:57:19;102989.00000000001;;;5.11;48.37
61676;BME280;47574;52.090;5.244;2023-03-01T06:58:55;102988.00000000001;;;5.19;48.52
61676;BME280;47574;52.090;5.244;2023-03-01T07:02:10;102986.99999999999;;;4.93;48.73
61676;BME280;47574;52.090;5.244;2023-03-01T07:03:47;102986.99999999999;;;5.0;48.9
61676;BME280;47574;52.090;5.244;2023-03-01T07:05:23;102990.00000000001;;;4.92;49.02
61676;BME280;47574;52.090;5.244;2023-03-01T07:08:35;102979.0;;;4.84;49.25
61676;BME280;47574;52.090;5.244;2023-03-01T07:10:12;102980.0;;;5.0;49.29
61676;BME280;47574;52.090;5.244;2023-03-01T07:11:48;102983.99999999999;;;5.07;49.28
61676;BME280;47574;52.090;5.244;2023-03-01T07:15:02;102983.99999999999;;;5.13;49.17
61676;BME280;47574;52.090;5.244;2023-03-01T07:16:40;102982.0;;;5.09;49.29
61676;BME280;47574;52.090;5.244;2023-03-01T07:18:16;102983.99999999999;;;5.39;48.7
61676;BME280;47574;52.090;5.244;2023-03-01T07:19:52;102986.99999999999;;;5.15;49.16
61676;BME280;47574;52.090;5.244;2023-03-01T07:23:06;102988.00000000001;;;5.46;48.68
61676;BME280;47574;52.090;5.244;2023-03-01T07:24:43;102991.00000000001;;;5.38;48.89
61676;BME280;47574;52.090;5.244;2023-03-01T07:26:19;102989.00000000001;;;5.65;48.44
61676;BME280;47574;52.090;5.244;2023-03-01T07:29:31;102993.0;;;5.66;48.57
61676;BME280;47574;52.090;5.244;2023-03-01T07:31:07;102994.0;;;5.82;48.27
61676;BME280;47574;52.090;5.244;2023-03-01T07:32:44;102996.0;;;5.91;48.39
61676;BME280;47574;52.090;5.244;2023-03-01T07:35:56;102993.0;;;5.94;48.42
61676;BME280;47574;52.090;5.244;2023-03-01T07:37:33;102994.0;;;5.94;48.31
61676;BME280;47574;52.090;5.244;2023-03-01T07:39:09;102995.0;;;5.81;48.66
61676;BME280;47574;52.090;5.244;2023-03-01T07:40:46;102995.0;;;5.97;48.72
61676;BME280;47574;52.090;5.244;2023-03-01T07:43:59;102992.0;;;6.19;48.14
61676;BME280;47574;52.090;5.244;2023-03-01T07:45:35;102996.0;;;6.25;48.33
61676;BME280;47574;52.090;5.244;2023-03-01T07:47:11;102997.0;;;5.98;48.79
61676;BME280;47574;52.090;5.244;2023-03-01T07:50:23;103000.0;;;6.42;47.95
61676;BME280;47574;52.090;5.244;2023-03-01T07:51:59;103002.0;;;6.5;47.64
61676;BME280;47574;52.090;5.244;2023-03-01T07:53:36;103005.0;;;6.5;48.02
61676;BME280;47574;52.090;5.244;2023-03-01T07:56:50;103002.0;;;6.57;47.91
61676;BME280;47574;52.090;5.244;2023-03-01T07:58:26;103000.0;;;6.56;48.07
61676;BME280;47574;52.090;5.244;2023-03-01T08:00:03;103002.0;;;6.62;48.03
61676;BME280;47574;52.090;5.244;2023-03-01T08:01:40;103001.0;;;7.05;47.14
61676;BME280;47574;52.090;5.244;2023-03-01T08:04:53;103002.0;;;7.15;46.87
61676;BME280;47574;52.090;5.244;2023-03-01T08:06:29;103006.0;;;6.83;47.62
61676;BME280;47574;52.090;5.244;2023-03-01T08:08:05;103004.0;;;7.17;46.9
61676;BME280;47574;52.090;5.244;2023-03-01T08:11:18;103005.0;;;7.25;46.65
61676;BME280;47574;52.090;5.244;2023-03-01T08:12:54;103002.0;;;7.31;46.78
61676;BME280;47574;52.090;5.244;2023-03-01T08:14:30;103001.0;;;6.92;47.66
61676;BME280;47574;52.090;5.244;2023-03-01T08:17:45;103002.0;;;7.01;47.61
61676;BME280;47574;52.090;5.244;2023-03-01T08:19:25;102999.0;;;6.94;47.88
61676;BME280;47574;52.090;5.244;2023-03-01T08:21:03;102992.0;;;7.22;47.06
61676;BME280;47574;52.090;5.244;2023-03-01T08:22:40;102992.0;;;7.46;46.33
61676;BME280;47574;52.090;5.244;2023-03-01T08:25:52;102994.0;;;7.59;46.04
61676;BME280;47574;52.090;5.244;2023-03-01T08:27:28;102992.0;;;7.55;46.13
61676;BME280;47574;52.090;5.244;2023-03-01T08:29:05;102990.00000000001;;;7.6;46.11
61676;BME280;47574;52.090;5.244;2023-03-01T08:32:17;102991.00000000001;;;7.88;45.18
61676;BME280;47574;52.090;5.244;2023-03-01T08:33:55;102991.00000000001;;;7.84;45.64
61676;BME280;47574;52.090;5.244;2023-03-01T08:35:33;102992.0;;;8.07;44.85
61676;BME280;47574;52.090;5.244;2023-03-01T08:38:45;102992.0;;;8.16;44.41
61676;BME280;47574;52.090;5.244;2023-03-01T08:40:22;102989.00000000001;;;8.05;45.25
61676;BME280;47574;52.090;5.244;2023-03-01T08:41:58;102989.00000000001;;;8.06;45.47
61676;BME280;47574;52.090;5.244;2023-03-01T08:43:34;102984.99999999999;;;8.1;45.47
61676;BME280;47574;52.090;5.244;2023-03-01T08:46:47;102979.0;;;7.09;46.99
61676;BME280;47574;52.090;5.244;2023-03-01T08:48:24;102983.99999999999;;;6.53;48.95
61676;BME280;47574;52.090;5.244;2023-03-01T08:50:01;102979.0;;;6.09;49.69
61676;BME280;47574;52.090;5.244;2023-03-01T08:53:15;102979.0;;;6.2;48.07
61676;BME280;47574;52.090;5.244;2023-03-01T08:54:51;102980.0;;;6.39;48.33
61676;BME280;47574;52.090;5.244;2023-03-01T08:56:27;102975.0;;;6.85;46.73
61676;BME280;47574;52.090;5.244;2023-03-01T08:59:39;102970.0;;;7.01;45.78
61676;BME280;47574;52.090;5.244;2023-03-01T09:01:17;102966.00000000001;;;7.21;45.27
61676;BME280;47574;52.090;5.244;2023-03-01T09:02:55;102967.0;;;7.29;44.94
61676;BME280;47574;52.090;5.244;2023-03-01T09:04:31;102963.00000000001;;;7.5;44.15
61676;BME280;47574;52.090;5.244;2023-03-01T09:07:44;102961.99999999999;;;7.51;44.12
61676;BME280;47574;52.090;5.244;2023-03-01T09:09:20;102958.0;;;7.54;44.42
61676;BME280;47574;52.090;5.244;2023-03-01T09:10:56;102951.0;;;7.4;44.28
61676;BME280;47574;52.090;5.244;2023-03-01T09:14:09;102950.0;;;7.46;44.58
61676;BME280;47574;52.090;5.244;2023-03-01T09:15:45;102949.0;;;7.58;44.13
61676;BME280;47574;52.090;5.244;2023-03-01T09:17:21;102943.0;;;7.52;43.0
61676;BME280;47574;52.090;5.244;2023-03-01T09:20:33;102942.0;;;7.91;42.29
61676;BME280;47574;52.090;5.244;2023-03-01T09:22:10;102942.0;;;8.06;41.58
61676;BME280;47574;52.090;5.244;2023-03-01T09:23:47;102942.0;;;8.34;40.71
61676;BME280;47574;52.090;5.244;2023-03-01T09:25:24;102936.99999999999;;;8.24;41.11
61676;BME280;47574;52.090;5.244;2023-03-01T09:28:37;102940.00000000001;;;8.31;40.79
61676;BME280;47574;52.090;5.244;2023-03-01T09:30:14;102938.00000000001;;;8.3;40.69
61676;BME280;47574;52.090;5.244;2023-03-01T09:31:49;102933.0;;;8.34;40.47
61676;BME280;47574;52.090;5.244;2023-03-01T09:35:03;102921.0;;;8.64;39.67
61676;BME280;47574;52.090;5.244;2023-03-01T09:36:40;102917.0;;;8.39;40.21
61676;BME280;47574;52.090;5.244;2023-03-01T09:38:16;102921.0;;;8.39;40.43
61676;BME280;47574;52.090;5.244;2023-03-01T09:41:38;102916.00000000001;;;8.61;39.51
61676;BME280;47574;52.090;5.244;2023-03-01T09:43:46;102909.99999999999;;;8.64;38.99
61676;BME280;47574;52.090;5.244;2023-03-01T09:45:28;102916.00000000001;;;8.63;38.96
61676;BME280;47574;52.090;5.244;2023-03-01T09:47:15;102914.00000000001;;;8.8;38.79
61676;BME280;47574;52.090;5.244;2023-03-01T09:48:56;102908.0;;;9.14;37.93
61676;BME280;47574;52.090;5.244;2023-03-01T09:50:39;102911.99999999999;;;9.25;37.37
61676;BME280;47574;52.090;5.244;2023-03-01T09:54:05;102906.0;;;9.11;37.47
61676;BME280;47574;52.090;5.244;2023-03-01T09:55:44;102907.0;;;9.25;37.31
61676;BME280;47574;52.090;5.244;2023-03-01T09:57:28;102907.0;;;9.17;37.47
61676;BME280;47574;52.090;5.244;2023-03-01T09:59:17;102909.99999999999;;;9.15;37.82
61676;BME280;47574;52.090;5.244;2023-03-01T10:01:03;102917.0;;;9.32;37.21
61676;BME280;47574;52.090;5.244;2023-03-01T10:04:36;102918.0;;;9.48;37.0
61676;BME280;47574;52.090;5.244;2023-03-01T10:06:21;102919.0;;;9.67;36.67
61676;BME280;47574;52.090;5.244;2023-03-01T10:08:06;102917.0;;;9.55;36.87
61676;BME280;47574;52.090;5.244;2023-03-01T10:10:05;102917.0;;;9.64;36.72
61676;BME280;47574;52.090;5.244;2023-03-01T10:11:43;102919.0;;;9.41;37.24
61676;BME280;47574;52.090;5.244;2023-03-01T10:15:08;102914.00000000001;;;9.73;36.6
61676;BME280;47574;52.090;5.244;2023-03-01T10:16:51;102917.0;;;9.67;36.86
61676;BME280;47574;52.090;5.244;2023-03-01T10:18:30;102911.99999999999;;;9.72;36.6
61676;BME280;47574;52.090;5.244;2023-03-01T10:20:16;102909.99999999999;;;10.02;35.76
61676;BME280;47574;52.090;5.244;2023-03-01T10:22:03;102909.99999999999;;;10.29;35.51
61676;BME280;47574;52.090;5.244;2023-03-01T10:25:42;102903.0;;;10.31;35.6
61676;BME280;47574;52.090;5.244;2023-03-01T10:27:23;102895.0;;;10.25;36.33
61676;BME280;47574;52.090;5.244;2023-03-01T10:29:03;102896.0;;;10.15;36.06
61676;BME280;47574;52.090;5.244;2023-03-01T10:30:40;102892.0;;;10.27;35.71
61676;BME280;47574;52.090;5.244;2023-03-01T10:32:17;102897.0;;;10.24;35.56
61676;BME280;47574;52.090;5.244;2023-03-01T10:35:33;102893.0;;;10.47;35.56
61676;BME280;47574;52.090;5.244;2023-03-01T10:37:12;102892.0;;;10.52;35.35
61676;BME280;47574;52.090;5.244;2023-03-01T10:38:50;102892.0;;;10.37;35.89
61676;BME280;47574;52.090;5.244;2023-03-01T10:42:05;102896.0;;;10.45;35.31
61676;BME280;47574;52.090;5.244;2023-03-01T10:43:56;102890.00000000001;;;11.0;33.79
61676;BME280;47574;52.090;5.244;2023-03-01T10:45:35;102888.00000000001;;;10.34;33.85